Munich, Germany

12:30 PM CEST on October 23, 2014 (GMT +0200)
Emeranbogen | Change Station
CLOSE
Current Station
Personal Weather Station
Location: Feldkirchen, BAVARIA
Elevation: 1719 ft
Nearby Weather Stations

Elev 1719 ft 48.15 °N, 11.74 °E | Updated 33 seconds ago

Overcast
Overcast
44.9 °F
Feels Like 45 °F
N
1.3
Wind Variable Wind from NE
Gusts 2.7 mph

Today
High -- | Low -- °F
--% Chance of Precip.
Yesterday
High -- | Low -- °F
Precip. -- in
7:44 AM 6:10 PM
Waning Crescent, 0% visible
Pressure 30.15 in
Visibility 6.2 miles
Clouds Scattered Clouds 1200 ft
Overcast 1500 ft
Windchill 45 °F
Dew Point 39 °F
Humidity 80%
Rainfall 0.00 in
Snow Depth Not available.
UV 0.0 out of 12
Pollen Not available.
Air Quality Not available.
Flu Activity Not available.
METAR EDDM 231020Z 31013KT 9999 SCT012 OVC015 07/05 Q1021 NOSIG

More Conditions Fewer Conditions

Pressure 30.15 in
Visibility 6.2 miles
Clouds Scattered Clouds 1200 ft
Overcast 1500 ft
Windchill 45 °F
Dew Point 39 °F
Humidity 80%
Rainfall 0.00 in
Snow Depth Not available.
UV 0.0 out of 12
Pollen Not available.
Air Quality Not available.
Flu Activity Not available.
METAR EDDM 231020Z 31013KT 9999 SCT012 OVC015 07/05 Q1021 NOSIG

More Conditions Fewer Conditions

10-Day Weather Forecast

Almanac

Astronomy

Oct. 23, 2014 Rise Set
Actual Time 7:44 AM CEST 6:10 PM CEST
Civil Twilight 7:12 AM CEST 6:41 PM CEST
Nautical Twilight 6:36 AM CEST 7:18 PM CEST
Astronomical Twilight 6:00 AM CEST 7:54 PM CEST
Moon 7:04 AM CEST 6:02 PM CEST
Length of Visible Light 11h 29m
Length of Day
10h 25m
Tomorrow will be 3m 18s shorter.
Waning Crescent, 0% of the Moon is Illuminated
Today
Waning Crescent
Oct 23
New
Oct 30
First Quarter
Nov 6
Full
Nov 14
Last Quarter

Yesterday's Extremes

Country Highs Country Lows

Community

WunderPhotos

Upload Photos

1,764,203 photos uploaded!

Nearby

Snow Depth

Not available.

Earthquake Activity

City Distance Mag. Time & Date
No recent earthquake activity has been reported nearby.
Minimum magnitude displayed is 2.5.

Coastal Water Temperatures

Place Temperature
No Stations Reporting

Nearby Weather Stations